Time,TemperatureF,DewpointF,PressureIn,WindDirection,WindDirectionDegrees,WindSpeedMPH,WindSpeedGustMPH,Humidity,HourlyPrecipIn,Conditions,Clouds,dailyrainin,SolarRadiationWatts/m^2,SoftwareType,DateUTC
2013-04-14 00:00:00,52.5,35.8,29.95,NNW,335,1.0,1.0,53,0.00,,,0.00,0,Wunderground v.1.15,2013-04-14 04:00:00,
2013-04-14 00:10:00,51.2,35.6,29.96,NE,34,0.0,0.0,55,0.00,,,0.00,0,Wunderground v.1.15,2013-04-14 04:10:00,
2013-04-14 00:19:00,51.0,35.4,29.95,NNW,334,0.0,0.0,55,0.00,,,0.00,0,Wunderground v.1.15,2013-04-14 04:19:00,
2013-04-14 00:29:00,49.6,35.4,29.97,NNW,335,0.0,0.0,58,0.00,,,0.00,0,Wunderground v.1.15,2013-04-14 04:29:00,
2013-04-14 00:40:00,48.7,35.4,29.97,NNW,335,0.0,0.0,60,0.00,,,0.00,0,Wunderground v.1.15,2013-04-14 04:40:00,
2013-04-14 00:49:00,48.2,35.0,29.97,NNW,335,0.0,0.0,60,0.00,,,0.00,0,Wunderground v.1.15,2013-04-14 04:49:00,
2013-04-14 01:00:00,48.3,35.5,29.97,NNW,335,0.0,0.0,61,0.00,,,0.00,0,Wunderground v.1.15,2013-04-14 05:00:00,
2013-04-14 01:10:00,46.4,35.3,29.98,NNW,335,0.0,0.0,65,0.00,,,0.00,0,Wunderground v.1.15,2013-04-14 05:10:00,
2013-04-14 01:19:00,45.5,35.5,29.98,NNW,335,0.0,0.0,68,0.00,,,0.00,0,Wunderground v.1.15,2013-04-14 05:19:00,
2013-04-14 01:30:00,45.0,35.4,29.98,NNW,335,0.0,0.0,69,0.00,,,0.00,0,Wunderground v.1.15,2013-04-14 05:30:00,
2013-04-14 01:40:00,44.3,35.8,29.98,NNW,335,0.0,0.0,72,0.00,,,0.00,0,Wunderground v.1.15,2013-04-14 05:40:00,
2013-04-14 01:49:00,43.3,35.9,29.98,NNW,335,0.0,0.0,75,0.00,,,0.00,0,Wunderground v.1.15,2013-04-14 05:49:00,
2013-04-14 02:00:00,43.6,35.9,29.98,NNW,335,0.0,0.0,74,0.00,,,0.00,0,Wunderground v.1.15,2013-04-14 06:00:00,
2013-04-14 02:10:00,43.6,35.5,29.97,NNW,335,0.0,0.0,73,0.00,,,0.00,0,Wunderground v.1.15,2013-04-14 06:10:00,
2013-04-14 02:20:00,44.5,35.7,29.97,NNW,335,0.0,0.0,71,0.00,,,0.00,0,Wunderground v.1.15,2013-04-14 06:20:00,
2013-04-14 02:29:00,44.3,35.5,29.97,NNW,335,0.0,0.0,71,0.00,,,0.00,0,Wunderground v.1.15,2013-04-14 06:29:00,
2013-04-14 02:40:00,42.2,35.2,29.97,NNW,335,0.0,0.0,76,0.00,,,0.00,0,Wunderground v.1.15,2013-04-14 06:40:00,
2013-04-14 02:50:00,41.8,35.4,29.96,NNW,335,0.0,0.0,78,0.00,,,0.00,0,Wunderground v.1.15,2013-04-14 06:50:00,
2013-04-14 03:00:00,42.5,35.5,29.97,NNW,335,0.0,0.0,76,0.00,,,0.00,0,Wunderground v.1.15,2013-04-14 07:00:00,
2013-04-14 03:10:00,42.4,35.4,29.97,NNW,335,0.0,0.0,76,0.00,,,0.00,0,Wunderground v.1.15,2013-04-14 07:10:00,
2013-04-14 03:19:00,41.3,35.3,29.96,NNW,335,0.0,0.0,79,0.00,,,0.00,0,Wunderground v.1.15,2013-04-14 07:19:00,
2013-04-14 03:30:00,41.3,35.6,29.96,NNW,335,0.0,0.0,80,0.00,,,0.00,0,Wunderground v.1.15,2013-04-14 07:30:00,
2013-04-14 03:40:00,40.6,34.6,29.96,NNW,335,0.0,0.0,79,0.00,,,0.00,0,Wunderground v.1.15,2013-04-14 07:40:00,
2013-04-14 03:49:00,40.0,34.9,29.97,NNW,335,0.0,0.0,82,0.00,,,0.00,0,Wunderground v.1.15,2013-04-14 07:49:00,
2013-04-14 03:59:00,40.1,35.4,29.97,NNW,335,0.0,0.0,83,0.00,,,0.00,0,Wunderground v.1.15,2013-04-14 07:59:00,
2013-04-14 04:10:00,39.4,34.4,29.98,NNW,335,0.0,0.0,82,0.00,,,0.00,0,Wunderground v.1.15,2013-04-14 08:10:00,
2013-04-14 04:20:00,40.0,35.3,29.98,NNW,335,0.0,0.0,83,0.00,,,0.00,0,Wunderground v.1.15,2013-04-14 08:20:00,
2013-04-14 04:30:00,39.7,35.0,29.98,NNW,335,0.0,0.0,83,0.00,,,0.00,0,Wunderground v.1.15,2013-04-14 08:30:00,
2013-04-14 04:40:00,39.7,35.3,29.99,NNW,335,0.0,0.0,84,0.00,,,0.00,0,Wunderground v.1.15,2013-04-14 08:40:00,
2013-04-14 04:50:00,39.6,35.2,29.99,NNW,335,0.0,0.0,84,0.00,,,0.00,0,Wunderground v.1.15,2013-04-14 08:50:00,
2013-04-14 05:00:00,39.7,35.0,30.00,NNW,335,0.0,0.0,83,0.00,,,0.00,0,Wunderground v.1.15,2013-04-14 09:00:00,
2013-04-14 05:10:00,38.5,33.8,30.00,NNW,335,0.0,0.0,83,0.00,,,0.00,0,Wunderground v.1.15,2013-04-14 09:10:00,
2013-04-14 05:20:00,38.1,34.3,30.00,NNW,335,0.0,0.0,86,0.00,,,0.00,0,Wunderground v.1.15,2013-04-14 09:20:00,
2013-04-14 05:29:00,38.2,34.1,30.01,NNW,335,0.0,0.0,85,0.00,,,0.00,0,Wunderground v.1.15,2013-04-14 09:29:00,
2013-04-14 05:40:00,38.2,34.7,30.01,NNW,335,0.0,0.0,87,0.00,,,0.00,0,Wunderground v.1.15,2013-04-14 09:40:00,
2013-04-14 05:49:00,38.7,35.2,30.02,NNW,335,0.0,0.0,87,0.00,,,0.00,0,Wunderground v.1.15,2013-04-14 09:49:00,
2013-04-14 06:00:00,39.5,35.4,30.03,NNW,335,0.0,0.0,85,0.00,,,0.00,0,Wunderground v.1.15,2013-04-14 10:00:00,
2013-04-14 06:09:00,40.1,35.4,30.03,NNW,335,0.0,0.0,83,0.00,,,0.00,0,Wunderground v.1.15,2013-04-14 10:09:00,
2013-04-14 06:20:00,40.9,35.5,30.04,NNW,335,0.0,0.0,81,0.00,,,0.00,0,Wunderground v.1.15,2013-04-14 10:20:00,
2013-04-14 06:29:00,42.3,36.3,30.05,NNW,335,0.0,0.0,79,0.00,,,0.00,0,Wunderground v.1.15,2013-04-14 10:29:00,
2013-04-14 06:39:00,43.1,36.0,30.05,NNW,335,0.0,2.0,76,0.00,,,0.00,5,Wunderground v.1.15,2013-04-14 10:39:00,
2013-04-14 06:50:00,43.8,36.0,30.06,NNW,335,1.0,1.0,74,0.00,,,0.00,12,Wunderground v.1.15,2013-04-14 10:50:00,
2013-04-14 07:00:00,44.5,36.0,30.07,NNW,334,1.0,1.0,72,0.00,,,0.00,25,Wunderground v.1.15,2013-04-14 11:00:00,
2013-04-14 07:10:00,45.0,36.2,30.08,NNW,334,0.0,0.0,71,0.00,,,0.00,40,Wunderground v.1.15,2013-04-14 11:10:00,
2013-04-14 07:20:00,45.8,36.2,30.08,WNW,299,1.0,3.0,69,0.00,,,0.00,67,Wunderground v.1.15,2013-04-14 11:20:00,
2013-04-14 07:29:00,46.3,36.3,30.09,WSW,254,2.0,4.0,68,0.00,,,0.00,97,Wunderground v.1.15,2013-04-14 11:29:00,
2013-04-14 07:40:00,46.8,36.0,30.09,WNW,300,2.0,2.0,66,0.00,,,0.00,132,Wunderground v.1.15,2013-04-14 11:40:00,
2013-04-14 07:49:00,47.2,36.0,30.09,West,279,2.0,3.0,65,0.00,,,0.00,165,Wunderground v.1.15,2013-04-14 11:49:00,
2013-04-14 08:00:00,47.6,36.0,30.10,WNW,298,2.0,2.0,64,0.00,,,0.00,199,Wunderground v.1.15,2013-04-14 12:00:00,
2013-04-14 08:09:00,48.0,36.0,30.10,WNW,297,3.0,5.0,63,0.00,,,0.00,230,Wunderground v.1.15,2013-04-14 12:09:00,
2013-04-14 08:20:00,48.4,35.6,30.10,WNW,292,3.0,3.0,61,0.00,,,0.00,265,Wunderground v.1.15,2013-04-14 12:20:00,
2013-04-14 08:30:00,49.0,35.7,30.09,NW,323,2.0,4.0,60,0.00,,,0.00,302,Wunderground v.1.15,2013-04-14 12:30:00,
2013-04-14 08:39:00,49.3,34.3,30.10,West,260,3.0,3.0,56,0.00,,,0.00,336,Wunderground v.1.15,2013-04-14 12:39:00,
2013-04-14 08:50:00,49.7,34.2,30.10,NNW,330,3.0,6.0,55,0.00,,,0.00,364,Wunderground v.1.15,2013-04-14 12:50:00,
2013-04-14 08:59:00,49.9,33.9,30.11,NW,305,4.0,4.0,54,0.00,,,0.00,401,Wunderground v.1.15,2013-04-14 12:59:00,
2013-04-14 09:10:00,50.3,34.3,30.11,WNW,303,4.0,4.0,54,0.00,,,0.00,432,Wunderground v.1.15,2013-04-14 13:10:00,
2013-04-14 09:19:00,50.4,34.4,30.13,NW,308,4.0,4.0,54,0.00,,,0.00,462,Wunderground v.1.15,2013-04-14 13:19:00,
2013-04-14 09:30:00,50.9,34.4,30.13,WSW,257,2.0,3.0,53,0.00,,,0.00,496,Wunderground v.1.15,2013-04-14 13:30:00,
2013-04-14 09:40:00,51.5,35.4,30.13,NNW,328,1.0,1.0,54,0.00,,,0.00,531,Wunderground v.1.15,2013-04-14 13:40:00,
2013-04-14 09:50:00,52.1,36.9,30.13,NW,322,2.0,2.0,56,0.00,,,0.00,559,Wunderground v.1.15,2013-04-14 13:50:00,
2013-04-14 10:00:00,52.4,35.8,30.13,WSW,248,0.0,0.0,53,0.00,,,0.00,592,Wunderground v.1.15,2013-04-14 14:00:00,
2013-04-14 10:09:00,52.4,35.8,30.13,North,360,1.0,1.0,53,0.00,,,0.00,617,Wunderground v.1.15,2013-04-14 14:09:00,
2013-04-14 10:20:00,53.7,36.0,30.13,NW,313,2.0,2.0,51,0.00,,,0.00,647,Wunderground v.1.15,2013-04-14 14:20:00,
2013-04-14 10:30:00,53.4,36.2,30.13,WNW,297,2.0,2.0,52,0.00,,,0.00,666,Wunderground v.1.15,2013-04-14 14:30:00,
2013-04-14 10:39:00,54.1,36.4,30.13,NW,311,2.0,2.0,51,0.00,,,0.00,698,Wunderground v.1.15,2013-04-14 14:39:00,
2013-04-14 10:50:00,54.3,36.0,30.13,NNW,327,2.0,2.0,50,0.00,,,0.00,712,Wunderground v.1.15,2013-04-14 14:50:00,
2013-04-14 11:00:00,55.1,35.7,30.12,West,264,1.0,1.0,48,0.00,,,0.00,744,Wunderground v.1.15,2013-04-14 15:00:00,
2013-04-14 11:10:00,55.3,37.0,30.13,West,259,1.0,1.0,50,0.00,,,0.00,745,Wunderground v.1.15,2013-04-14 15:10:00,
2013-04-14 11:19:00,56.0,37.6,30.13,WSW,254,1.0,1.0,50,0.00,,,0.00,777,Wunderground v.1.15,2013-04-14 15:19:00,
2013-04-14 11:30:00,56.3,38.4,30.12,West,264,1.0,1.0,51,0.00,,,0.00,802,Wunderground v.1.15,2013-04-14 15:30:00,
2013-04-14 11:39:00,56.4,38.0,30.11,North,5,2.0,4.0,50,0.00,,,0.00,809,Wunderground v.1.15,2013-04-14 15:39:00,
2013-04-14 11:50:00,57.7,37.0,30.11,NW,324,1.0,4.0,46,0.00,,,0.00,826,Wunderground v.1.15,2013-04-14 15:50:00,
2013-04-14 12:00:00,57.7,37.6,30.11,NW,308,3.0,3.0,47,0.00,,,0.00,798,Wunderground v.1.15,2013-04-14 16:00:00,
2013-04-14 12:10:00,58.0,37.3,30.10,NW,310,2.0,2.0,46,0.00,,,0.00,800,Wunderground v.1.15,2013-04-14 16:10:00,
2013-04-14 12:20:00,58.1,37.4,30.10,WNW,302,3.0,7.0,46,0.00,,,0.00,780,Wunderground v.1.15,2013-04-14 16:20:00,
2013-04-14 12:29:00,58.4,38.8,30.10,NNE,12,2.0,2.0,48,0.00,,,0.00,838,Wunderground v.1.15,2013-04-14 16:29:00,
2013-04-14 12:40:00,59.0,41.4,30.10,NNW,329,2.0,2.0,52,0.00,,,0.00,766,Wunderground v.1.15,2013-04-14 16:40:00,
2013-04-14 12:50:00,58.8,39.1,30.09,NNE,31,2.0,2.0,48,0.00,,,0.00,687,Wunderground v.1.15,2013-04-14 16:50:00,
2013-04-14 13:00:00,59.3,39.1,30.09,West,259,2.0,5.0,47,0.00,,,0.00,823,Wunderground v.1.15,2013-04-14 17:00:00,
2013-04-14 13:10:00,59.6,37.1,30.08,West,273,2.0,2.0,43,0.00,,,0.00,772,Wunderground v.1.15,2013-04-14 17:10:00,
2013-04-14 13:19:00,59.6,36.5,30.08,WSW,254,1.0,1.0,42,0.00,,,0.00,708,Wunderground v.1.15,2013-04-14 17:19:00,
2013-04-14 13:30:00,60.2,39.3,30.08,NW,322,2.0,2.0,46,0.00,,,0.00,712,Wunderground v.1.15,2013-04-14 17:30:00,
2013-04-14 13:39:00,60.3,37.1,30.08,NNW,327,1.0,1.0,42,0.00,,,0.00,671,Wunderground v.1.15,2013-04-14 17:39:00,
2013-04-14 13:49:00,60.4,40.6,30.07,North,5,3.0,3.0,48,0.00,,,0.00,854,Wunderground v.1.15,2013-04-14 17:49:00,
2013-04-14 14:00:00,60.6,36.1,30.07,NNW,330,2.0,2.0,40,0.00,,,0.00,751,Wunderground v.1.15,2013-04-14 18:00:00,
2013-04-14 14:10:00,60.9,38.8,30.06,SE,126,1.0,4.0,44,0.00,,,0.00,854,Wunderground v.1.15,2013-04-14 18:10:00,
2013-04-14 14:19:00,61.9,41.4,30.06,NE,40,1.0,1.0,47,0.00,,,0.00,671,Wunderground v.1.15,2013-04-14 18:19:00,
2013-04-14 14:30:00,61.1,37.8,30.06,ESE,122,1.0,1.0,42,0.00,,,0.00,733,Wunderground v.1.15,2013-04-14 18:30:00,
2013-04-14 14:40:00,61.8,40.8,30.06,NE,40,1.0,2.0,46,0.00,,,0.00,796,Wunderground v.1.15,2013-04-14 18:40:00,
2013-04-14 14:49:00,62.0,38.0,30.06,SE,133,1.0,3.0,41,0.00,,,0.00,592,Wunderground v.1.15,2013-04-14 18:49:00,
2013-04-14 14:59:00,63.3,39.2,30.06,NW,311,1.0,1.0,41,0.00,,,0.00,759,Wunderground v.1.15,2013-04-14 18:59:00,
2013-04-14 15:10:00,65.2,39.6,30.06,West,268,2.0,2.0,39,0.00,,,0.00,752,Wunderground v.1.15,2013-04-14 19:10:00,
2013-04-14 15:19:00,64.7,39.2,30.06,SW,234,2.0,4.0,39,0.00,,,0.00,731,Wunderground v.1.15,2013-04-14 19:19:00,
2013-04-14 15:30:00,65.9,39.6,30.05,SW,229,2.0,2.0,38,0.00,,,0.00,598,Wunderground v.1.15,2013-04-14 19:30:00,
2013-04-14 15:40:00,65.4,38.4,30.05,NNW,344,1.0,1.0,37,0.00,,,0.00,680,Wunderground v.1.15,2013-04-14 19:40:00,
2013-04-14 15:49:00,65.8,39.5,30.05,NNW,329,1.0,1.0,38,0.00,,,0.00,671,Wunderground v.1.15,2013-04-14 19:49:00,
2013-04-14 16:00:00,66.0,41.0,30.05,WSW,243,3.0,3.0,40,0.00,,,0.00,570,Wunderground v.1.15,2013-04-14 20:00:00,
2013-04-14 16:09:00,66.7,40.3,30.05,West,278,2.0,3.0,38,0.00,,,0.00,642,Wunderground v.1.15,2013-04-14 20:09:00,
2013-04-14 16:20:00,66.4,38.6,30.04,WSW,248,1.0,4.0,36,0.00,,,0.00,568,Wunderground v.1.15,2013-04-14 20:20:00,
2013-04-14 16:29:00,67.1,42.0,30.04,SW,222,1.0,1.0,40,0.00,,,0.00,434,Wunderground v.1.15,2013-04-14 20:29:00,
2013-04-14 16:39:00,67.7,41.2,30.03,WSW,243,2.0,4.0,38,0.00,,,0.00,478,Wunderground v.1.15,2013-04-14 20:39:00,
2013-04-14 16:50:00,67.1,39.9,30.03,WSW,255,3.0,3.0,37,0.00,,,0.00,394,Wunderground v.1.15,2013-04-14 20:50:00,
2013-04-14 16:59:00,67.9,40.7,30.03,WSW,237,1.0,2.0,37,0.00,,,0.00,403,Wunderground v.1.15,2013-04-14 20:59:00,
2013-04-14 17:09:00,67.6,39.7,30.03,South,191,2.0,2.0,36,0.00,,,0.00,369,Wunderground v.1.15,2013-04-14 21:09:00,
2013-04-14 17:20:00,66.3,39.2,30.03,ESE,121,0.0,0.0,37,0.00,,,0.00,250,Wunderground v.1.15,2013-04-14 21:20:00,
2013-04-14 17:29:00,66.5,41.4,30.04,SW,235,1.0,1.0,40,0.00,,,0.00,251,Wunderground v.1.15,2013-04-14 21:29:00,
2013-04-14 17:40:00,65.6,42.5,30.04,SE,146,1.0,1.0,43,0.00,,,0.00,193,Wunderground v.1.15,2013-04-14 21:40:00,
2013-04-14 17:50:00,64.8,41.8,30.04,SE,137,2.0,3.0,43,0.00,,,0.00,156,Wunderground v.1.15,2013-04-14 21:50:00,
2013-04-14 18:00:00,64.4,41.4,30.04,SE,126,3.0,3.0,43,0.00,,,0.00,172,Wunderground v.1.15,2013-04-14 22:00:00,
2013-04-14 18:10:00,64.3,39.4,30.05,SE,142,3.0,5.0,40,0.00,,,0.00,144,Wunderground v.1.15,2013-04-14 22:10:00,
2013-04-14 18:19:00,64.2,41.2,30.05,SSE,148,3.0,3.0,43,0.00,,,0.00,134,Wunderground v.1.15,2013-04-14 22:19:00,
2013-04-14 18:30:00,63.8,40.3,30.05,SE,133,2.0,3.0,42,0.00,,,0.00,83,Wunderground v.1.15,2013-04-14 22:30:00,
2013-04-14 18:40:00,63.4,41.7,30.06,SE,145,2.0,2.0,45,0.00,,,0.00,77,Wunderground v.1.15,2013-04-14 22:40:00,
2013-04-14 18:49:00,63.2,41.5,30.06,SE,137,1.0,1.0,45,0.00,,,0.00,58,Wunderground v.1.15,2013-04-14 22:49:00,
2013-04-14 19:00:00,63.0,41.3,30.06,SE,137,0.0,0.0,45,0.00,,,0.00,46,Wunderground v.1.15,2013-04-14 23:00:00,
2013-04-14 19:10:00,62.7,41.6,30.06,SE,137,0.0,0.0,46,0.00,,,0.00,33,Wunderground v.1.15,2013-04-14 23:10:00,
2013-04-14 19:20:00,62.0,41.5,30.06,SE,137,0.0,0.0,47,0.00,,,0.00,19,Wunderground v.1.15,2013-04-14 23:20:00,
2013-04-14 19:29:00,61.3,42.0,30.06,East,82,0.0,0.0,49,0.00,,,0.00,12,Wunderground v.1.15,2013-04-14 23:29:00,
2013-04-14 19:39:00,61.1,41.8,30.06,ESE,121,0.0,0.0,49,0.00,,,0.00,5,Wunderground v.1.15,2013-04-14 23:39:00,
2013-04-14 19:49:00,60.7,41.4,30.06,ESE,121,0.0,0.0,49,0.00,,,0.00,0,Wunderground v.1.15,2013-04-14 23:49:00,
2013-04-14 19:59:00,60.0,41.3,30.06,ESE,121,0.0,0.0,50,0.00,,,0.00,0,Wunderground v.1.15,2013-04-14 23:59:00,
2013-04-14 20:10:00,60.0,41.3,30.06,SE,124,2.0,2.0,50,0.00,,,0.00,0,Wunderground v.1.15,2013-04-15 00:10:00,
2013-04-14 20:19:00,59.5,41.3,30.06,East,80,1.0,1.0,51,0.00,,,0.00,0,Wunderground v.1.15,2013-04-15 00:19:00,
2013-04-14 20:30:00,59.0,40.4,30.06,SE,127,1.0,2.0,50,0.00,,,0.00,0,Wunderground v.1.15,2013-04-15 00:30:00,
2013-04-14 20:40:00,59.0,40.9,30.06,ESE,107,1.0,1.0,51,0.00,,,0.00,0,Wunderground v.1.15,2013-04-15 00:40:00,
2013-04-14 20:50:00,58.9,40.8,30.07,ESE,107,0.0,0.0,51,0.00,,,0.00,0,Wunderground v.1.15,2013-04-15 00:50:00,
2013-04-14 20:59:00,58.4,40.3,30.07,ESE,119,0.0,1.0,51,0.00,,,0.00,0,Wunderground v.1.15,2013-04-15 00:59:00,
2013-04-14 21:09:00,58.5,40.9,30.07,ESE,119,0.0,0.0,52,0.00,,,0.00,0,Wunderground v.1.15,2013-04-15 01:09:00,
2013-04-14 21:20:00,58.3,40.2,30.07,ESE,119,0.0,0.0,51,0.00,,,0.00,0,Wunderground v.1.15,2013-04-15 01:20:00,
2013-04-14 21:30:00,58.4,40.3,30.07,ESE,122,0.0,0.0,51,0.00,,,0.00,0,Wunderground v.1.15,2013-04-15 01:30:00,
2013-04-14 21:39:00,58.7,40.6,30.07,ESE,117,1.0,2.0,51,0.00,,,0.00,0,Wunderground v.1.15,2013-04-15 01:39:00,
2013-04-14 21:50:00,59.0,40.9,30.07,ESE,120,1.0,1.0,51,0.00,,,0.00,0,Wunderground v.1.15,2013-04-15 01:50:00,
2013-04-14 22:00:00,58.8,40.2,30.07,SE,131,1.0,2.0,50,0.00,,,0.00,0,Wunderground v.1.15,2013-04-15 02:00:00,
2013-04-14 22:10:00,59.0,39.9,30.07,ESE,120,2.0,2.0,49,0.00,,,0.00,0,Wunderground v.1.15,2013-04-15 02:10:00,
2013-04-14 22:19:00,59.0,39.9,30.07,SE,130,2.0,2.0,49,0.00,,,0.00,0,Wunderground v.1.15,2013-04-15 02:19:00,
2013-04-14 22:30:00,59.0,39.9,30.07,ESE,119,1.0,1.0,49,0.00,,,0.00,0,Wunderground v.1.15,2013-04-15 02:30:00,
2013-04-14 22:40:00,58.9,40.3,30.07,ESE,119,0.0,0.0,50,0.00,,,0.00,0,Wunderground v.1.15,2013-04-15 02:40:00,
2013-04-14 22:50:00,58.6,40.5,30.07,SE,134,1.0,1.0,51,0.00,,,0.00,0,Wunderground v.1.15,2013-04-15 02:50:00,
2013-04-14 22:59:00,58.8,40.2,30.08,SSE,159,1.0,1.0,50,0.00,,,0.00,0,Wunderground v.1.15,2013-04-15 02:59:00,
2013-04-14 23:09:00,58.7,40.1,30.07,SE,138,1.0,1.0,50,0.00,,,0.00,0,Wunderground v.1.15,2013-04-15 03:09:00,
2013-04-14 23:20:00,58.4,40.3,30.07,SE,127,1.0,1.0,51,0.00,,,0.00,0,Wunderground v.1.15,2013-04-15 03:20:00,
2013-04-14 23:29:00,58.5,40.4,30.08,SE,131,1.0,1.0,51,0.00,,,0.00,0,Wunderground v.1.15,2013-04-15 03:29:00,
2013-04-14 23:40:00,58.2,41.1,30.08,SE,144,0.0,0.0,53,0.00,,,0.00,0,Wunderground v.1.15,2013-04-15 03:40:00,
2013-04-14 23:50:00,58.1,40.6,30.09,SE,144,0.0,0.0,52,0.00,,,0.00,0,Wunderground v.1.15,2013-04-15 03:50:00,
2013-04-14 23:59:00,57.7,40.7,30.08,SE,144,0.0,0.0,53,0.00,,,0.00,0,Wunderground v.1.15,2013-04-15 03:59:00,